createdAt,value
2023-01-03T00:01:59.399Z,25.95
2023-01-03T00:06:53.849Z,26.42
2023-01-03T00:12:07.321Z,26.75
2023-01-03T00:17:02.747Z,28.42
2023-01-03T00:21:56.763Z,33.25
2023-01-03T00:26:49.158Z,30.73
2023-01-03T00:31:44.240Z,30.75
2023-01-03T00:36:39.022Z,29.00
2023-01-03T00:41:32.814Z,28.77
2023-01-03T00:46:26.797Z,30.67
2023-01-03T00:51:29.065Z,28.70
2023-01-03T00:56:23.872Z,28.23
2023-01-03T01:01:26.561Z,26.70
2023-01-03T01:06:27.723Z,28.33
2023-01-03T01:11:21.011Z,28.73
2023-01-03T01:16:39.513Z,30.65
2023-01-03T01:21:33.114Z,30.73
2023-01-03T01:26:26.621Z,31.83
2023-01-03T01:31:22.446Z,30.48
2023-01-03T01:36:19.385Z,30.15
2023-01-03T01:41:15.138Z,26.90
2023-01-03T01:46:15.444Z,27.63
2023-01-03T01:51:10.761Z,28.50
2023-01-03T01:56:14.634Z,26.52
2023-01-03T02:01:13.568Z,28.27
2023-01-03T02:06:09.299Z,26.38
2023-01-03T02:11:20.374Z,26.10
2023-01-03T02:16:40.609Z,24.25
2023-01-03T02:22:08.441Z,22.38
2023-01-03T02:27:30.723Z,23.38
2023-01-03T02:32:54.054Z,22.13
2023-01-03T02:38:12.408Z,23.05
2023-01-03T02:43:15.214Z,23.20
2023-01-03T02:48:32.698Z,24.00
2023-01-03T02:53:30.185Z,25.88
2023-01-03T02:58:26.633Z,25.50
2023-01-03T03:03:23.420Z,26.90
2023-01-03T03:08:17.443Z,28.58
2023-01-03T03:13:24.759Z,24.45
2023-01-03T03:18:40.865Z,27.40
2023-01-03T03:23:56.306Z,26.33
2023-01-03T03:28:54.241Z,26.65
2023-01-03T03:34:03.885Z,29.88
2023-01-03T03:38:58.081Z,27.17
2023-01-03T03:44:29.649Z,26.33
2023-01-03T03:49:39.085Z,25.60
2023-01-03T03:54:35.435Z,24.55
2023-01-03T03:59:29.545Z,29.23
2023-01-03T04:04:27.085Z,24.02
2023-01-03T04:09:21.103Z,25.75
2023-01-03T04:14:14.128Z,27.65
2023-01-03T04:19:08.300Z,24.92
2023-01-03T04:24:02.033Z,25.15
2023-01-03T04:28:56.251Z,25.38
2023-01-03T04:33:51.469Z,28.60
2023-01-03T04:39:24.513Z,25.85
2023-01-03T04:44:57.260Z,23.05
2023-01-03T04:49:52.079Z,24.17
2023-01-03T04:54:46.286Z,24.52
2023-01-03T04:59:39.807Z,21.45
2023-01-03T05:04:33.544Z,24.75
2023-01-03T05:09:28.155Z,19.17
2023-01-03T05:14:22.069Z,18.88
2023-01-03T05:19:15.842Z,17.25
2023-01-03T05:24:31.755Z,18.80
2023-01-03T05:29:25.568Z,20.17
2023-01-03T05:34:18.964Z,19.48
2023-01-03T05:39:13.551Z,17.55
2023-01-03T05:44:07.626Z,18.58
2023-01-03T05:49:01.536Z,17.83
2023-01-03T05:53:54.582Z,17.85
2023-01-03T05:58:48.111Z,19.85
2023-01-03T06:03:45.185Z,20.02
2023-01-03T06:08:38.696Z,18.75
2023-01-03T06:13:32.682Z,17.35
2023-01-03T06:18:26.717Z,17.77
2023-01-03T06:23:19.809Z,17.25
2023-01-03T06:28:13.628Z,17.17
2023-01-03T06:33:08.003Z,17.65
2023-01-03T06:38:01.238Z,18.05
2023-01-03T06:42:54.840Z,20.40
2023-01-03T06:48:07.207Z,17.42
2023-01-03T06:53:13.226Z,20.90
2023-01-03T06:58:06.709Z,20.55
2023-01-03T07:03:04.257Z,21.70
2023-01-03T07:08:01.643Z,21.80
2023-01-03T07:13:13.688Z,23.13
2023-01-03T07:18:08.043Z,24.80
2023-01-03T07:23:01.883Z,22.73
2023-01-03T07:28:16.308Z,26.05
2023-01-03T07:33:11.943Z,22.02
2023-01-03T07:38:06.331Z,20.70
2023-01-03T07:43:17.941Z,18.13
2023-01-03T07:48:12.155Z,19.48
2023-01-03T07:53:06.430Z,17.45
2023-01-03T07:58:00.879Z,16.40
2023-01-03T08:02:55.338Z,19.92
2023-01-03T08:07:50.655Z,18.38
2023-01-03T08:13:02.751Z,18.85
2023-01-03T08:17:56.198Z,18.77
2023-01-03T08:22:50.040Z,20.73
2023-01-03T08:27:48.289Z,21.88
2023-01-03T08:32:44.570Z,20.23
2023-01-03T08:37:38.450Z,23.70
2023-01-03T08:42:32.276Z,21.35
2023-01-03T08:47:26.185Z,21.08
2023-01-03T08:52:19.613Z,21.00
2023-01-03T08:57:13.524Z,17.65
2023-01-03T09:02:07.290Z,18.35
2023-01-03T09:07:00.856Z,18.23
2023-01-03T09:11:55.168Z,20.65
2023-01-03T09:16:49.776Z,20.65
2023-01-03T09:21:43.241Z,19.38
2023-01-03T09:26:36.361Z,18.20
2023-01-03T09:31:35.106Z,17.35
2023-01-03T09:36:29.591Z,17.88
2023-01-03T09:41:24.741Z,20.08
2023-01-03T09:46:23.072Z,18.65
2023-01-03T09:51:46.448Z,21.40
2023-01-03T09:57:02.045Z,36.65
2023-01-03T10:02:34.725Z,18.02
2023-01-03T10:08:07.987Z,19.30
2023-01-03T10:13:20.452Z,20.17
2023-01-03T10:18:31.953Z,19.55
2023-01-03T10:23:25.801Z,19.33
2023-01-03T10:28:26.354Z,20.77
2023-01-03T10:33:32.168Z,19.05
2023-01-03T10:38:26.533Z,19.25
2023-01-03T10:43:26.543Z,20.58
2023-01-03T10:48:20.360Z,20.27
2023-01-03T10:53:16.884Z,18.25
2023-01-03T10:58:24.229Z,18.77
2023-01-03T11:03:23.605Z,19.35
2023-01-03T11:08:45.411Z,20.10
2023-01-03T11:13:41.404Z,19.30
2023-01-03T11:18:35.380Z,17.40
2023-01-03T11:24:00.513Z,17.17
2023-01-03T11:29:30.923Z,20.00
2023-01-03T11:35:20.223Z,20.10
2023-01-03T11:40:14.938Z,19.40
2023-01-03T11:45:29.896Z,18.60
2023-01-03T11:50:40.867Z,16.85
2023-01-03T11:55:58.074Z,23.20
2023-01-03T12:01:06.811Z,20.25
2023-01-03T12:06:16.557Z,20.13
2023-01-03T12:11:15.035Z,19.60
2023-01-03T12:16:19.787Z,25.58
2023-01-03T12:21:31.070Z,19.70
2023-01-03T12:26:26.656Z,21.33
2023-01-03T12:31:48.005Z,21.33
2023-01-03T12:37:02.812Z,18.92
2023-01-03T12:42:30.188Z,19.50
2023-01-03T12:47:37.901Z,17.90
2023-01-03T12:52:33.852Z,20.48
2023-01-03T12:57:52.902Z,20.55
2023-01-03T13:02:46.511Z,21.97
2023-01-03T13:07:42.925Z,19.60
2023-01-03T13:12:44.439Z,21.00
2023-01-03T13:17:46.631Z,20.77
2023-01-03T13:22:57.119Z,19.70
2023-01-03T13:27:51.961Z,23.15
2023-01-03T13:33:17.193Z,20.85
2023-01-03T13:38:29.391Z,21.25
2023-01-03T13:43:28.355Z,19.73
2023-01-03T13:48:30.271Z,20.60
2023-01-03T13:53:26.342Z,21.52
2023-01-03T13:58:25.304Z,20.30
2023-01-03T14:03:41.438Z,20.90
2023-01-03T14:09:06.499Z,21.67
2023-01-03T14:14:25.026Z,20.63
2023-01-03T14:19:32.714Z,23.45
2023-01-03T14:24:52.836Z,21.52
2023-01-03T14:29:52.817Z,20.80
2023-01-03T14:34:46.870Z,20.85
2023-01-03T14:39:42.845Z,21.23
2023-01-03T14:44:35.945Z,22.80
2023-01-03T14:49:38.106Z,21.30
2023-01-03T14:54:32.377Z,19.42
2023-01-03T14:59:26.120Z,20.15
2023-01-03T15:04:20.173Z,19.80
2023-01-03T15:09:23.000Z,22.25
2023-01-03T15:14:16.899Z,21.75
2023-01-03T15:19:22.896Z,21.20
2023-01-03T15:24:20.716Z,21.52
2023-01-03T15:29:25.368Z,21.63
2023-01-03T15:34:38.733Z,19.33
2023-01-03T15:39:45.370Z,21.75
2023-01-03T15:44:39.135Z,18.92
2023-01-03T15:49:41.523Z,17.65
2023-01-03T15:54:35.792Z,18.58
2023-01-03T15:59:35.671Z,19.13
2023-01-03T16:04:33.208Z,22.45
2023-01-03T16:09:27.040Z,19.60
2023-01-03T16:14:23.897Z,21.38
2023-01-03T16:19:20.182Z,19.92
2023-01-03T16:24:17.080Z,24.15
2023-01-03T16:29:10.216Z,21.45
2023-01-03T16:34:05.437Z,24.77
2023-01-03T16:38:59.693Z,23.98
2023-01-03T16:43:55.555Z,20.85
2023-01-03T16:48:56.030Z,23.40
2023-01-03T16:53:50.289Z,25.27
2023-01-03T16:58:43.448Z,22.40
2023-01-03T17:03:41.798Z,20.23
2023-01-03T17:09:05.285Z,22.90
2023-01-03T17:14:01.723Z,22.42
2023-01-03T17:18:54.780Z,23.92
2023-01-03T17:23:48.653Z,20.48
2023-01-03T17:28:46.450Z,21.55
2023-01-03T17:33:40.400Z,27.83
2023-01-03T17:38:34.216Z,24.70
2023-01-03T17:43:28.442Z,22.85
2023-01-03T17:48:39.828Z,26.20
2023-01-03T17:53:33.333Z,21.98
2023-01-03T17:58:55.648Z,24.17
2023-01-03T18:03:50.767Z,24.95
2023-01-03T18:08:44.617Z,23.73
2023-01-03T18:13:38.472Z,23.15
2023-01-03T18:18:33.181Z,23.17
2023-01-03T18:23:31.703Z,27.10
2023-01-03T18:28:27.700Z,23.48
2023-01-03T18:33:21.097Z,25.35
2023-01-03T18:38:31.729Z,23.23
2023-01-03T18:43:26.106Z,23.88
2023-01-03T18:48:24.312Z,25.45
2023-01-03T18:53:23.001Z,25.13
2023-01-03T18:58:29.764Z,24.58
2023-01-03T19:03:31.446Z,23.33
2023-01-03T19:08:26.201Z,24.27
2023-01-03T19:13:29.662Z,27.83
2023-01-03T19:18:29.610Z,22.67
2023-01-03T19:23:26.128Z,23.60
2023-01-03T19:28:24.983Z,21.45
2023-01-03T19:33:19.850Z,26.53
2023-01-03T19:38:14.317Z,21.73
2023-01-03T19:43:08.328Z,20.38
2023-01-03T19:48:14.350Z,19.67
2023-01-03T19:53:08.431Z,21.40
2023-01-03T19:58:27.796Z,19.95
2023-01-03T20:03:35.740Z,21.73
2023-01-03T20:08:29.713Z,21.33
2023-01-03T20:13:25.563Z,24.13
2023-01-03T20:18:21.363Z,23.52
2023-01-03T20:23:16.534Z,23.23
2023-01-03T20:28:20.296Z,22.73
2023-01-03T20:33:14.314Z,22.48
2023-01-03T20:38:08.295Z,22.13
2023-01-03T20:43:04.432Z,21.65
2023-01-03T20:47:57.417Z,20.88
2023-01-03T20:52:51.162Z,21.33
2023-01-03T20:57:45.037Z,20.85
2023-01-03T21:02:39.506Z,22.33
2023-01-03T21:07:51.765Z,21.73
2023-01-03T21:12:45.494Z,20.48
2023-01-03T21:17:38.963Z,21.25
2023-01-03T21:22:34.025Z,19.42
2023-01-03T21:27:27.954Z,17.80
2023-01-03T21:32:21.898Z,18.60
2023-01-03T21:37:15.831Z,19.55
2023-01-03T21:42:29.787Z,20.55
2023-01-03T21:47:22.949Z,19.95
2023-01-03T21:52:16.922Z,20.33
2023-01-03T21:57:11.245Z,21.52
2023-01-03T22:02:22.670Z,21.63
2023-01-03T22:07:16.337Z,21.40
2023-01-03T22:12:12.778Z,20.95
2023-01-03T22:17:07.800Z,20.90
2023-01-03T22:22:01.393Z,20.52
2023-01-03T22:26:54.919Z,22.23
2023-01-03T22:31:49.104Z,20.55
2023-01-03T22:36:42.537Z,20.92
2023-01-03T22:41:36.137Z,20.02
2023-01-03T22:46:29.395Z,18.40
2023-01-03T22:51:23.647Z,17.88
2023-01-03T22:56:22.308Z,19.55
2023-01-03T23:01:28.467Z,17.27
2023-01-03T23:06:29.676Z,19.65
2023-01-03T23:11:49.123Z,21.15
2023-01-03T23:16:52.565Z,23.27
2023-01-03T23:21:54.372Z,21.20
2023-01-03T23:27:08.094Z,21.40
2023-01-03T23:32:06.606Z,20.42
2023-01-03T23:37:05.852Z,23.30
2023-01-03T23:42:06.081Z,20.67
2023-01-03T23:47:11.023Z,19.88
2023-01-03T23:52:11.013Z,18.83
2023-01-03T23:57:10.434Z,18.02
